If you wish to contribute or participate in the discussions about articles you are invited to join SKYbrary as a registered user

 Actions

Chachoán Airport

From SKYbrary Wiki

SEAM
Airport
ICAO: SEAM – IATA: ATF
Summary
Name Chachoán Airport
Region South America and Caribbean
Territory Ecuador EC.gif
Location , Tungurahua
Serving Ambato
Elevation 2,591.41 m
8,502 ft
8,502 ft2,591.41 m
Type medium airport
Coordinates 1° 12' 43.44" S, 78° 34' 28.69" W
Runways
Designator Length Width Surface ROPS
1/19 1925 m6,315.617 ft
25 m82.021 ft
ASP /


METAR
Observation SEAM 031900Z 14008KT 9999 BKN026 16/08 Q1032
Station Ambato / Chachoan
Date/Time 03 August 2020 19:00:00
Wind direction 140°
Wind speed 08 kts
Lowest cloud amount broken clouds
Temperature 16°C
Dew point 8°C
Humidity 59%
QNH 1032 hPa
Weather condition n/a